Time;durP1;ratioP1;P1;durP2;ratioP2;P2;SDS_P1;SDS_P2;PMS_P1;PMS_P2;Temp;Humidity;BMP_temperature;BMP_pressure;BME280_temperature;BME280_humidity;BME280_pressure;Samples;Min_cycle;Max_cycle;Signal;HPM_P1;HPM_P2
2022/10/28 00:00:31;;;;;;;5.00;2.10;;;13.70;99.90;;;;;;5034257;28;20171;-91
2022/10/28 00:02:59;;;;;;;7.27;2.33;;;13.60;99.90;;;;;;5016053;28;20176;-88
2022/10/28 00:05:24;;;;;;;8.30;2.60;;;13.60;99.90;;;;;;5015977;28;20200;-89
2022/10/28 00:07:50;;;;;;;6.90;2.30;;;13.60;99.90;;;;;;5032987;28;20453;-88
2022/10/28 00:10:15;;;;;;;4.20;2.60;;;13.60;99.90;;;;;;5033528;28;20243;-88
2022/10/28 00:12:41;;;;;;;5.87;3.13;;;13.60;99.90;;;;;;5015587;28;20178;-87
2022/10/28 00:15:07;;;;;;;6.07;2.87;;;13.60;99.90;;;;;;5032982;28;20203;-88
2022/10/28 00:17:32;;;;;;;3.60;2.27;;;13.70;99.90;;;;;;5033111;28;20176;-88
2022/10/28 00:19:58;;;;;;;3.40;1.60;;;13.70;99.90;;;;;;5033077;28;20421;-88
2022/10/28 00:22:23;;;;;;;3.33;2.27;;;13.70;99.90;;;;;;5033349;28;20191;-88
2022/10/28 00:24:49;;;;;;;3.73;2.13;;;13.70;99.90;;;;;;5015193;28;20566;-91
2022/10/28 00:27:14;;;;;;;3.33;2.00;;;13.70;99.90;;;;;;5033196;28;20190;-89
2022/10/28 00:29:39;;;;;;;5.00;3.13;;;13.70;99.90;;;;;;5036672;28;20190;-90
2022/10/28 00:32:05;;;;;;;6.13;2.40;;;13.70;99.90;;;;;;5018717;28;20539;-91
2022/10/28 00:34:30;;;;;;;4.60;2.10;;;13.70;99.90;;;;;;5036619;28;20183;-91
2022/10/28 00:36:56;;;;;;;4.57;2.67;;;13.70;99.90;;;;;;5036499;28;20207;-89
2022/10/28 00:39:23;;;;;;;3.67;2.30;;;13.70;99.90;;;;;;5036324;28;20660;-90
2022/10/28 00:41:54;;;;;;;6.87;3.63;;;13.70;99.90;;;;;;5018637;28;20677;-91
2022/10/28 00:44:39;;;;;;;3.83;3.00;;;13.70;99.90;;;;;;5036661;28;20776;-89
2022/10/28 00:47:16;;;;;;;4.10;2.30;;;13.60;99.90;;;;;;5036422;28;20416;-90
2022/10/28 00:49:43;;;;;;;5.80;2.27;;;13.50;99.90;;;;;;5036189;28;20471;-90
2022/10/28 00:52:15;;;;;;;4.57;1.93;;;13.40;99.90;;;;;;5036250;28;20507;-89
2022/10/28 00:54:42;;;;;;;8.10;2.33;;;13.40;99.90;;;;;;5036054;28;20438;-90
2022/10/28 00:57:13;;;;;;;8.40;4.33;;;13.30;99.90;;;;;;5051438;28;20505;-88
2022/10/28 00:59:42;;;;;;;3.57;1.73;;;13.30;99.90;;;;;;5036152;28;20418;-90
2022/10/28 01:02:08;;;;;;;6.30;2.60;;;13.30;99.90;;;;;;5051279;28;20441;-90
2022/10/28 01:04:34;;;;;;;3.80;2.00;;;13.30;99.90;;;;;;5036163;28;20408;-89
2022/10/28 01:07:00;;;;;;;3.50;2.20;;;13.30;99.90;;;;;;5036038;28;20304;-90
2022/10/28 01:09:26;;;;;;;4.77;1.80;;;13.30;99.90;;;;;;5035546;28;20555;-90
2022/10/28 01:12:10;;;;;;;3.63;1.90;;;13.30;99.90;;;;;;5035942;28;20433;-88
2022/10/28 01:15:01;;;;;;;6.37;2.37;;;13.30;99.90;;;;;;5036044;28;20171;-87
2022/10/28 01:17:37;;;;;;;7.43;2.30;;;13.30;99.90;;;;;;5036023;28;20498;-90
2022/10/28 01:20:39;;;;;;;7.53;2.10;;;13.30;99.90;;;;;;5035864;28;20394;-87
2022/10/28 01:23:38;;;;;;;10.73;3.07;;;13.30;99.90;;;;;;5034137;28;20902;-89
2022/10/28 01:26:39;;;;;;;3.70;1.80;;;13.20;99.90;;;;;;5035647;28;20893;-89
2022/10/28 01:29:33;;;;;;;3.37;2.30;;;13.30;99.90;;;;;;5032223;28;20508;-90
2022/10/28 01:32:28;;;;;;;3.70;2.33;;;13.30;99.90;;;;;;5034499;28;20922;-90
2022/10/28 01:35:09;;;;;;;3.93;2.40;;;13.40;99.90;;;;;;5030350;28;20486;-90
2022/10/28 01:37:43;;;;;;;3.70;2.23;;;13.40;99.90;;;;;;5034178;28;20498;-87
2022/10/28 01:40:28;;;;;;;4.63;2.50;;;13.30;99.90;;;;;;5035129;28;20409;-88
2022/10/28 01:43:10;;;;;;;6.73;2.53;;;13.30;99.90;;;;;;5034149;28;20422;-88
2022/10/28 01:45:59;;;;;;;4.50;2.33;;;13.20;99.90;;;;;;5035274;28;20406;-89
2022/10/28 01:48:44;;;;;;;4.13;2.70;;;13.20;99.90;;;;;;5050716;28;20961;-90
2022/10/28 01:51:20;;;;;;;3.87;2.00;;;13.20;99.90;;;;;;5034859;28;20468;-88
2022/10/28 01:53:49;;;;;;;3.30;1.60;;;13.10;99.90;;;;;;5034648;28;20415;-89
2022/10/28 01:56:20;;;;;;;4.73;2.43;;;13.10;99.90;;;;;;5035119;28;20514;-87
2022/10/28 01:58:47;;;;;;;5.40;2.73;;;13.10;99.90;;;;;;5050836;28;20953;-87
2022/10/28 02:01:13;;;;;;;6.07;2.20;;;13.10;99.90;;;;;;5034884;28;20418;-88
2022/10/28 02:03:38;;;;;;;4.60;2.50;;;13.00;99.90;;;;;;5034868;28;20407;-87
2022/10/28 02:06:09;;;;;;;5.67;2.20;;;12.90;99.90;;;;;;5035136;28;20421;-89
2022/10/28 02:08:38;;;;;;;7.50;2.60;;;12.80;99.90;;;;;;5034376;28;20163;-87
2022/10/28 02:11:21;;;;;;;2.67;1.30;;;12.80;99.90;;;;;;5033918;28;20809;-89
2022/10/28 02:14:04;;;;;;;2.90;1.53;;;12.80;99.90;;;;;;5035059;28;20405;-89
2022/10/28 02:16:32;;;;;;;3.30;1.90;;;12.70;99.90;;;;;;5035335;28;21035;-89
2022/10/28 02:19:26;;;;;;;4.73;2.47;;;12.80;99.90;;;;;;5035138;28;20412;-89
2022/10/28 02:22:22;;;;;;;5.50;2.00;;;12.80;99.90;;;;;;5035237;28;20421;-89
2022/10/28 02:25:10;;;;;;;4.83;1.60;;;12.80;99.90;;;;;;5033844;28;20429;-88
2022/10/28 02:27:56;;;;;;;4.17;2.30;;;12.90;99.90;;;;;;5033860;28;20425;-88
2022/10/28 02:30:28;;;;;;;2.10;1.90;;;13.00;99.90;;;;;;5035040;28;20409;-89
2022/10/28 02:33:03;;;;;;;4.47;2.97;;;12.90;99.90;;;;;;5034855;28;20414;-89
2022/10/28 02:35:34;;;;;;;4.17;3.20;;;12.90;99.90;;;;;;5050088;28;20421;-89
2022/10/28 02:38:04;;;;;;;5.27;2.43;;;12.90;99.90;;;;;;5049546;28;20452;-89
2022/10/28 02:40:32;;;;;;;5.63;2.30;;;12.80;99.90;;;;;;5050233;28;20517;-89
2022/10/28 02:43:00;;;;;;;2.47;1.80;;;12.70;99.90;;;;;;5034484;28;20422;-89
2022/10/28 02:45:55;;;;;;;6.47;1.90;;;12.60;99.90;;;;;;5049720;28;20444;-89
2022/10/28 02:48:30;;;;;;;5.23;1.87;;;12.50;99.90;;;;;;5033418;28;20503;-90
2022/10/28 02:51:08;;;;;;;4.70;1.90;;;12.50;99.90;;;;;;5049587;28;20901;-88
2022/10/28 02:54:02;;;;;;;6.43;2.33;;;12.70;99.90;;;;;;5050263;28;20417;-89
2022/10/28 02:56:33;;;;;;;6.83;2.27;;;12.80;99.90;;;;;;5014639;28;21040;-88
2022/10/28 02:58:58;;;;;;;6.37;2.27;;;12.90;99.90;;;;;;5034593;28;20504;-89
2022/10/28 03:01:24;;;;;;;9.43;3.13;;;12.70;99.90;;;;;;5050507;28;20464;-90
2022/10/28 03:03:49;;;;;;;5.93;2.73;;;12.40;99.90;;;;;;5049722;28;20235;-88
2022/10/28 03:06:15;;;;;;;4.30;1.83;;;12.40;99.90;;;;;;5033572;28;20182;-87
2022/10/28 03:08:40;;;;;;;4.13;2.03;;;12.30;99.90;;;;;;5032972;28;20513;-90
2022/10/28 03:11:05;;;;;;;4.40;1.67;;;12.20;99.90;;;;;;5032961;28;20172;-89
2022/10/28 03:13:31;;;;;;;3.30;1.93;;;12.20;99.90;;;;;;5031785;28;20170;-88
2022/10/28 03:15:56;;;;;;;3.37;1.60;;;12.50;99.90;;;;;;5033595;28;20202;-88
2022/10/28 03:18:22;;;;;;;8.30;1.73;;;12.50;99.90;;;;;;5032347;28;20265;-88
2022/10/28 03:20:47;;;;;;;4.07;2.70;;;12.40;99.90;;;;;;5032269;28;20170;-88
2022/10/28 03:23:13;;;;;;;7.33;2.77;;;12.50;99.90;;;;;;5048954;28;20679;-89
2022/10/28 03:25:38;;;;;;;4.97;2.60;;;12.60;99.90;;;;;;5033654;28;20175;-89
2022/10/28 03:28:04;;;;;;;4.10;3.27;;;12.70;99.90;;;;;;5033497;28;20686;-88
2022/10/28 03:30:29;;;;;;;6.13;2.40;;;12.70;99.90;;;;;;5048968;28;20182;-89
2022/10/28 03:32:55;;;;;;;3.90;2.10;;;12.50;99.90;;;;;;5033484;28;20647;-89
2022/10/28 03:35:20;;;;;;;9.03;2.60;;;12.40;99.90;;;;;;5033332;28;20635;-89
2022/10/28 03:37:46;;;;;;;3.23;1.57;;;12.50;99.90;;;;;;5033178;28;20287;-90
2022/10/28 03:40:12;;;;;;;5.20;2.57;;;12.60;99.90;;;;;;5033467;28;20167;-89
2022/10/28 03:42:40;;;;;;;4.50;2.33;;;12.60;99.90;;;;;;5033518;28;20529;-89
2022/10/28 03:45:06;;;;;;;3.63;2.93;;;12.70;99.90;;;;;;5033433;28;20779;-89
2022/10/28 03:47:33;;;;;;;4.77;2.40;;;12.90;99.90;;;;;;5033337;28;20411;-89
2022/10/28 03:49:58;;;;;;;4.50;2.73;;;12.90;99.90;;;;;;5033314;28;20488;-88
2022/10/28 03:52:24;;;;;;;6.27;3.33;;;13.00;99.90;;;;;;5033043;28;20911;-86
2022/10/28 03:54:49;;;;;;;5.43;2.57;;;13.10;99.90;;;;;;5033515;28;20179;-90
2022/10/28 03:57:15;;;;;;;3.50;2.50;;;13.20;99.90;;;;;;5033307;28;20207;-89
2022/10/28 03:59:40;;;;;;;4.33;2.77;;;13.20;99.90;;;;;;5033661;28;20508;-89
2022/10/28 04:02:06;;;;;;;5.63;2.50;;;13.30;99.90;;;;;;5034269;28;20173;-88
2022/10/28 04:04:31;;;;;;;6.57;2.93;;;13.30;99.90;;;;;;5037480;28;20167;-89
2022/10/28 04:06:57;;;;;;;5.00;2.40;;;13.30;99.90;;;;;;5037524;28;20210;-89
2022/10/28 04:09:22;;;;;;;4.40;2.70;;;13.30;99.90;;;;;;5035780;28;20216;-89
2022/10/28 04:11:50;;;;;;;4.73;2.90;;;13.30;99.90;;;;;;5037504;28;20201;-90
2022/10/28 04:14:16;;;;;;;7.03;3.63;;;13.30;99.90;;;;;;5036211;28;20174;-90
2022/10/28 04:16:41;;;;;;;4.97;2.60;;;13.40;99.90;;;;;;5037158;28;20473;-90
2022/10/28 04:19:07;;;;;;;5.13;2.50;;;13.30;99.90;;;;;;5035898;28;20280;-90
2022/10/28 04:21:32;;;;;;;6.67;3.00;;;13.30;99.90;;;;;;5035905;28;20188;-90
2022/10/28 04:23:58;;;;;;;8.73;2.03;;;13.30;99.90;;;;;;5035550;28;20293;-89
2022/10/28 04:26:23;;;;;;;6.73;3.17;;;13.30;99.90;;;;;;5052113;28;20175;-89
2022/10/28 04:28:49;;;;;;;4.93;2.80;;;13.40;99.90;;;;;;5036891;28;20255;-89
2022/10/28 04:31:15;;;;;;;4.60;2.73;;;13.40;99.90;;;;;;5036818;28;20189;-89
2022/10/28 04:33:40;;;;;;;5.83;2.80;;;13.40;99.90;;;;;;5036649;28;20178;-90
2022/10/28 04:36:06;;;;;;;6.83;2.50;;;13.30;99.90;;;;;;5035719;28;20212;-89
2022/10/28 04:38:32;;;;;;;7.10;2.90;;;13.30;99.90;;;;;;5036264;28;20183;-89
2022/10/28 04:40:57;;;;;;;5.20;2.70;;;13.40;99.90;;;;;;5052335;28;20169;-90
2022/10/28 04:43:23;;;;;;;6.70;2.20;;;13.30;99.90;;;;;;5036694;28;20262;-89
2022/10/28 04:45:48;;;;;;;3.60;2.40;;;13.30;99.90;;;;;;5051455;28;20182;-89
2022/10/28 04:48:14;;;;;;;5.93;2.80;;;13.30;99.90;;;;;;5036416;28;20171;-88
2022/10/28 04:50:39;;;;;;;4.33;3.03;;;13.30;99.90;;;;;;5036002;28;20215;-89
2022/10/28 04:53:05;;;;;;;6.93;3.20;;;13.30;99.90;;;;;;5035963;28;20650;-88
2022/10/28 04:55:30;;;;;;;5.50;3.07;;;13.30;99.90;;;;;;5034541;28;20219;-89
2022/10/28 04:57:58;;;;;;;7.40;3.33;;;13.30;99.90;;;;;;5051424;28;20201;-89
2022/10/28 05:00:24;;;;;;;6.10;2.90;;;13.40;99.90;;;;;;5051592;28;20611;-89
2022/10/28 05:02:50;;;;;;;4.80;2.70;;;13.30;99.90;;;;;;5051757;28;20526;-90
2022/10/28 05:05:16;;;;;;;6.23;2.70;;;13.30;99.90;;;;;;5036086;28;20504;-89
2022/10/28 05:07:41;;;;;;;5.23;2.53;;;13.30;99.90;;;;;;5051029;28;20170;-89
2022/10/28 05:10:07;;;;;;;6.80;3.17;;;13.20;99.90;;;;;;5051226;28;20310;-88
2022/10/28 05:12:33;;;;;;;7.67;3.43;;;13.20;99.90;;;;;;5035859;28;20646;-89
2022/10/28 05:14:58;;;;;;;5.43;2.77;;;13.20;99.90;;;;;;5050670;28;20424;-90
2022/10/28 05:17:24;;;;;;;8.27;2.70;;;13.20;99.90;;;;;;5034345;28;20206;-89
2022/10/28 05:19:49;;;;;;;4.90;2.50;;;13.20;99.90;;;;;;5035600;28;20191;-87
2022/10/28 05:22:15;;;;;;;6.27;2.57;;;13.20;99.90;;;;;;5035383;28;20212;-90
2022/10/28 05:24:40;;;;;;;4.30;2.17;;;13.10;99.90;;;;;;5035199;28;20176;-86
2022/10/28 05:27:06;;;;;;;4.40;2.47;;;13.20;99.90;;;;;;5035489;28;20193;-88
2022/10/28 05:29:31;;;;;;;6.53;3.00;;;13.20;99.90;;;;;;5036040;28;20176;-88
2022/10/28 05:31:57;;;;;;;5.80;2.07;;;13.20;99.90;;;;;;5035754;28;20211;-88
2022/10/28 05:34:25;;;;;;;7.30;2.63;;;13.10;99.90;;;;;;5036376;28;20691;-89
2022/10/28 05:36:53;;;;;;;6.43;2.93;;;13.20;99.90;;;;;;5035599;28;20217;-88
2022/10/28 05:39:19;;;;;;;5.40;3.13;;;13.20;99.90;;;;;;5041385;28;20425;-88
2022/10/28 05:41:44;;;;;;;6.13;3.37;;;13.30;99.90;;;;;;5037659;28;20778;-88
2022/10/28 05:44:10;;;;;;;5.80;2.60;;;13.30;99.90;;;;;;5033765;28;20175;-90
2022/10/28 05:46:35;;;;;;;5.87;2.73;;;13.20;99.90;;;;;;5034977;28;20692;-88
2022/10/28 05:49:01;;;;;;;6.03;2.60;;;13.10;99.90;;;;;;5034974;28;20167;-88
2022/10/28 05:51:26;;;;;;;4.87;3.07;;;13.00;99.90;;;;;;5034747;28;20231;-90
2022/10/28 05:53:52;;;;;;;5.90;2.30;;;12.90;99.90;;;;;;5034295;28;20178;-89
2022/10/28 05:56:17;;;;;;;5.43;3.23;;;12.70;99.90;;;;;;5033001;28;20319;-90
2022/10/28 05:58:43;;;;;;;5.93;2.70;;;12.60;99.90;;;;;;5034890;28;20174;-88
2022/10/28 06:01:09;;;;;;;4.77;2.20;;;12.50;99.90;;;;;;5034475;28;20745;-89
2022/10/28 06:03:35;;;;;;;4.87;2.33;;;12.60;99.90;;;;;;5033420;28;20269;-88
2022/10/28 06:06:00;;;;;;;4.43;2.73;;;12.50;99.90;;;;;;5033029;28;20615;-87
2022/10/28 06:08:26;;;;;;;9.97;2.90;;;12.70;99.90;;;;;;5032820;28;20803;-88
2022/10/28 06:10:53;;;;;;;7.10;2.97;;;12.80;99.90;;;;;;5016659;28;20179;-88
2022/10/28 06:13:19;;;;;;;5.50;3.37;;;12.90;99.90;;;;;;5034435;28;20421;-88
2022/10/28 06:15:50;;;;;;;4.23;2.20;;;12.90;99.90;;;;;;5034166;28;20453;-88
2022/10/28 06:18:16;;;;;;;5.80;2.73;;;12.90;99.90;;;;;;5034087;28;20421;-89
2022/10/28 06:20:41;;;;;;;6.73;3.90;;;12.90;99.90;;;;;;5034304;28;20420;-89
2022/10/28 06:23:06;;;;;;;7.73;4.10;;;12.90;99.90;;;;;;5016099;28;20662;-88
2022/10/28 06:25:32;;;;;;;4.80;3.13;;;13.00;99.90;;;;;;5032090;28;20217;-89
2022/10/28 06:27:59;;;;;;;3.97;2.40;;;12.90;99.90;;;;;;5032785;28;20670;-89
2022/10/28 06:30:26;;;;;;;3.73;3.03;;;12.90;99.90;;;;;;5016381;28;20180;-89
2022/10/28 06:32:52;;;;;;;3.60;2.87;;;12.90;99.90;;;;;;5032759;28;20754;-88
2022/10/28 06:35:18;;;;;;;7.43;3.77;;;12.90;99.90;;;;;;5033964;28;20409;-88
2022/10/28 06:37:43;;;;;;;9.53;4.50;;;12.90;99.90;;;;;;5032281;28;20468;-88
2022/10/28 06:40:09;;;;;;;10.40;4.50;;;13.00;99.90;;;;;;5033706;28;20463;-88
2022/10/28 06:42:35;;;;;;;7.10;2.33;;;13.10;99.90;;;;;;5016029;28;20180;-88
2022/10/28 06:45:00;;;;;;;6.30;3.23;;;13.10;99.90;;;;;;5016180;28;20174;-88
2022/10/28 06:47:26;;;;;;;6.43;3.10;;;13.10;99.90;;;;;;5032646;28;20235;-88
2022/10/28 06:49:51;;;;;;;6.57;3.23;;;13.20;99.90;;;;;;5033549;28;20659;-89
2022/10/28 06:52:17;;;;;;;6.43;4.30;;;13.20;99.90;;;;;;5033518;28;20171;-90
2022/10/28 06:54:42;;;;;;;6.03;4.37;;;13.30;99.90;;;;;;5033567;28;20179;-88
2022/10/28 06:57:11;;;;;;;4.57;2.80;;;13.40;99.90;;;;;;5032680;28;20214;-89
2022/10/28 06:59:37;;;;;;;7.80;4.27;;;13.40;99.90;;;;;;5034216;28;20274;-89
2022/10/28 07:02:03;;;;;;;5.20;3.87;;;13.60;99.90;;;;;;5017950;28;20506;-86
2022/10/28 07:04:28;;;;;;;7.10;4.47;;;13.70;99.90;;;;;;5033389;28;20171;-84
2022/10/28 07:06:58;;;;;;;11.60;4.37;;;13.80;99.90;;;;;;5031707;28;20276;-89
2022/10/28 07:09:23;;;;;;;5.00;3.33;;;13.90;99.90;;;;;;5033445;28;20200;-82
2022/10/28 07:11:49;;;;;;;4.80;2.80;;;14.00;99.90;;;;;;5033189;28;20452;-83
2022/10/28 07:14:15;;;;;;;4.07;2.73;;;14.10;99.90;;;;;;5033233;28;20172;-83
2022/10/28 07:16:41;;;;;;;8.17;4.20;;;14.10;99.90;;;;;;5033115;28;20210;-83
2022/10/28 07:19:07;;;;;;;4.03;3.20;;;14.20;99.90;;;;;;5033067;28;20421;-84
2022/10/28 07:21:32;;;;;;;8.07;3.80;;;14.30;99.90;;;;;;5033020;28;20178;-83
2022/10/28 07:23:58;;;;;;;7.10;3.97;;;14.40;99.90;;;;;;5032716;28;20258;-84
2022/10/28 07:26:24;;;;;;;10.73;3.90;;;14.40;99.90;;;;;;5032997;28;20193;-83
2022/10/28 07:28:49;;;;;;;6.40;4.13;;;14.50;99.90;;;;;;5031931;28;20169;-84
2022/10/28 07:31:15;;;;;;;8.97;4.30;;;14.60;99.90;;;;;;5033021;28;20415;-83
2022/10/28 07:33:41;;;;;;;7.83;4.10;;;14.70;99.90;;;;;;5032941;28;20542;-83
2022/10/28 07:36:07;;;;;;;6.10;3.40;;;14.80;99.90;;;;;;5032792;28;20208;-84
2022/10/28 07:38:33;;;;;;;4.00;2.40;;;15.00;99.90;;;;;;5035855;28;20435;-84
2022/10/28 07:41:03;;;;;;;7.87;2.87;;;15.20;99.90;;;;;;5036921;28;20250;-84
2022/10/28 07:43:29;;;;;;;5.13;2.43;;;15.30;99.90;;;;;;5036867;28;20467;-84
2022/10/28 07:45:56;;;;;;;4.53;2.20;;;15.50;99.90;;;;;;5036761;28;20455;-84
2022/10/28 07:48:21;;;;;;;8.67;3.13;;;15.90;99.90;;;;;;5036771;28;20539;-83
2022/10/28 07:50:47;;;;;;;6.63;2.40;;;16.00;99.90;;;;;;5036559;28;20462;-83
2022/10/28 07:53:12;;;;;;;5.23;3.00;;;16.00;99.90;;;;;;5036339;28;20547;-82
2022/10/28 07:55:38;;;;;;;5.80;1.90;;;16.00;99.90;;;;;;5036557;28;20163;-81
2022/10/28 07:58:03;;;;;;;7.70;2.50;;;16.20;99.90;;;;;;5036543;28;20173;-81
2022/10/28 08:00:29;;;;;;;7.27;2.30;;;16.40;99.90;;;;;;5036230;28;20204;-82
2022/10/28 08:02:54;;;;;;;5.47;1.77;;;16.70;99.90;;;;;;5036319;28;20699;-80
2022/10/28 08:05:20;;;;;;;4.70;2.27;;;17.30;99.90;;;;;;5036502;28;20213;-81
2022/10/28 08:07:46;;;;;;;5.27;2.00;;;18.00;99.90;;;;;;5036039;28;20591;-82
2022/10/28 08:10:12;;;;;;;4.93;2.50;;;19.10;1.00;;;;;;5036460;28;20202;-84
2022/10/28 08:12:37;;;;;;;5.10;2.20;;;20.00;1.00;;;;;;5036456;28;20447;-86
2022/10/28 08:15:04;;;;;;;4.00;2.47;;;19.20;99.90;;;;;;5036435;28;20266;-84
2022/10/28 08:17:29;;;;;;;9.37;2.50;;;18.60;1.00;;;;;;5036676;28;20277;-85
2022/10/28 08:19:54;;;;;;;5.93;2.90;;;19.80;1.00;;;;;;5036277;28;20901;-84
2022/10/28 08:22:20;;;;;;;7.00;2.60;;;20.50;45.40;;;;;;5035867;28;20212;-87
2022/10/28 08:24:45;;;;;;;7.00;2.17;;;20.60;99.90;;;;;;5036206;28;20177;-87
2022/10/28 08:27:11;;;;;;;6.77;2.00;;;21.10;1.00;;;;;;5036132;28;20181;-83
2022/10/28 08:29:36;;;;;;;4.63;2.60;;;21.30;1.00;;;;;;5036170;28;20224;-83
2022/10/28 08:32:02;;;;;;;5.27;2.00;;;21.60;99.90;;;;;;5035991;28;20174;-82
2022/10/28 08:34:29;;;;;;;10.03;2.20;;;22.00;52.10;;;;;;5035871;28;20623;-84
2022/10/28 08:36:55;;;;;;;3.47;1.47;;;22.50;1.00;;;;;;5035527;28;20233;-83
2022/10/28 08:39:21;;;;;;;3.33;2.13;;;21.90;1.00;;;;;;5035791;28;20774;-83
2022/10/28 08:41:52;;;;;;;4.70;2.03;;;22.30;1.00;;;;;;5035999;28;20178;-82
2022/10/28 08:44:42;;;;;;;4.10;2.10;;;22.70;1.00;;;;;;5035867;28;20314;-83
2022/10/28 08:47:31;;;;;;;5.70;1.50;;;22.70;1.00;;;;;;5034512;28;20874;-85
2022/10/28 08:50:14;;;;;;;3.07;2.30;;;22.10;1.00;;;;;;5034441;28;20461;-84
2022/10/28 08:53:20;;;;;;;4.27;2.00;;;23.40;99.90;;;;;;5035453;28;20504;-83
2022/10/28 08:55:48;;;;;;;4.77;1.63;;;21.50;99.90;;;;;;5035739;28;20411;-83
2022/10/28 08:58:25;;;;;;;5.73;2.30;;;21.80;99.90;;;;;;5035599;28;20413;-85
2022/10/28 09:00:53;;;;;;;7.53;1.30;;;22.70;1.00;;;;;;5035653;28;20466;-84
2022/10/28 09:03:29;;;;;;;3.43;2.50;;;23.70;99.90;;;;;;5035413;28;20468;-83
2022/10/28 09:06:03;;;;;;;5.73;2.40;;;23.20;99.90;;;;;;5035375;28;20435;-90
2022/10/28 09:08:41;;;;;;;4.70;2.00;;;23.20;99.90;;;;;;5034920;28;20978;-86
2022/10/28 09:11:09;;;;;;;5.47;1.73;;;23.70;99.90;;;;;;5035467;28;20443;-88
2022/10/28 09:13:49;;;;;;;3.20;1.83;;;24.00;99.90;;;;;;5035420;28;20439;-85
2022/10/28 09:16:33;;;;;;;4.53;1.80;;;24.80;99.90;;;;;;5041261;28;20902;-87
2022/10/28 09:19:09;;;;;;;3.93;1.90;;;25.20;99.90;;;;;;5036150;28;20405;-91
2022/10/28 09:21:49;;;;;;;3.00;1.63;;;24.90;99.90;;;;;;5038621;28;20799;-86
2022/10/28 09:24:36;;;;;;;3.47;1.33;;;25.70;99.90;;;;;;5038574;28;20512;-89
2022/10/28 09:27:29;;;;;;;4.43;1.47;;;25.20;99.90;;;;;;5043410;28;20471;-90
2022/10/28 09:30:13;;;;;;;3.90;1.40;;;25.60;99.90;;;;;;5042958;28;20426;-85
2022/10/28 09:33:20;;;;;;;5.10;1.70;;;26.50;99.90;;;;;;5039715;28;20417;-86
2022/10/28 09:35:47;;;;;;;7.30;2.30;;;26.60;99.90;;;;;;5046854;28;20422;-85
2022/10/28 09:38:31;;;;;;;6.20;2.23;;;26.60;99.90;;;;;;5039696;28;20485;-86
2022/10/28 09:41:06;;;;;;;3.30;1.87;;;25.80;99.90;;;;;;5044129;28;20416;-89
2022/10/28 09:43:34;;;;;;;6.40;2.10;;;25.70;99.90;;;;;;5046094;28;20427;-85
2022/10/28 09:46:12;;;;;;;2.07;1.23;;;25.60;99.90;;;;;;5045338;28;20964;-87
2022/10/28 09:48:42;;;;;;;3.87;2.00;;;25.20;99.90;;;;;;5033359;28;20409;-86
2022/10/28 09:51:22;;;;;;;3.43;1.83;;;24.60;99.90;;;;;;5041920;28;20471;-86
2022/10/28 09:53:55;;;;;;;5.33;2.33;;;25.20;99.90;;;;;;5042538;28;20495;-86
2022/10/28 09:56:20;;;;;;;4.40;1.83;;;24.70;99.90;;;;;;5046315;28;20475;-86
2022/10/28 09:58:47;;;;;;;3.77;1.37;;;25.90;99.90;;;;;;5042376;28;20417;-85
2022/10/28 10:01:13;;;;;;;7.97;1.90;;;26.70;99.90;;;;;;5036720;28;20186;-92
2022/10/28 10:03:40;;;;;;;3.63;1.53;;;26.30;99.90;;;;;;5046428;28;20416;-86
2022/10/28 10:06:12;;;;;;;4.30;1.50;;;26.90;99.90;;;;;;5045154;28;20425;-94
2022/10/28 10:08:40;;;;;;;2.60;1.17;;;25.70;99.90;;;;;;5044249;28;20417;-86
2022/10/28 10:11:20;;;;;;;3.37;1.70;;;26.00;99.90;;;;;;5042227;28;20427;-87
2022/10/28 10:13:46;;;;;;;4.47;1.70;;;26.30;99.90;;;;;;5041005;28;20405;-86
2022/10/28 10:16:18;;;;;;;6.50;1.87;;;26.40;99.90;;;;;;5034010;28;20459;-86
2022/10/28 10:18:49;;;;;;;2.23;1.00;;;27.40;99.90;;;;;;5046485;28;20554;-86
2022/10/28 10:21:15;;;;;;;8.33;2.00;;;27.70;99.90;;;;;;5045182;28;20473;-86
2022/10/28 10:23:41;;;;;;;3.73;1.43;;;28.50;99.90;;;;;;5053142;28;20777;-87
2022/10/28 10:26:15;;;;;;;3.00;1.33;;;28.60;99.90;;;;;;5053364;28;20417;-86
2022/10/28 10:28:47;;;;;;;5.10;2.10;;;28.70;99.90;;;;;;5052949;28;20426;-85
2022/10/28 10:31:24;;;;;;;5.70;1.77;;;28.60;99.90;;;;;;5053587;28;20420;-86
2022/10/28 10:33:52;;;;;;;3.00;1.40;;;27.60;99.90;;;;;;5053642;28;20426;-86
2022/10/28 10:36:22;;;;;;;2.83;1.07;;;25.80;99.90;;;;;;5053189;28;20467;-85
2022/10/28 10:38:54;;;;;;;2.83;1.10;;;25.10;99.90;;;;;;5053509;28;20515;-85
2022/10/28 10:41:43;;;;;;;6.93;1.97;;;24.60;99.90;;;;;;5053544;28;20765;-84
2022/10/28 10:44:20;;;;;;;5.07;1.43;;;24.20;99.90;;;;;;5053438;28;20404;-84
2022/10/28 10:46:59;;;;;;;6.23;1.23;;;24.30;99.90;;;;;;5053398;28;20408;-85
2022/10/28 10:49:25;;;;;;;4.97;1.70;;;24.40;99.90;;;;;;5053049;28;20399;-85
2022/10/28 10:51:53;;;;;;;4.27;1.23;;;24.80;99.90;;;;;;5052946;28;20416;-85
2022/10/28 10:54:19;;;;;;;4.27;1.23;;;24.30;99.90;;;;;;5053321;28;20538;-85
2022/10/28 10:56:45;;;;;;;4.40;1.20;;;24.10;99.90;;;;;;5053216;28;20870;-85
2022/10/28 10:59:22;;;;;;;6.17;1.37;;;23.70;99.90;;;;;;5053090;28;20491;-85
2022/10/28 11:01:47;;;;;;;3.47;1.00;;;23.60;99.90;;;;;;5053191;28;20173;-84
2022/10/28 11:04:20;;;;;;;8.73;2.07;;;23.60;99.90;;;;;;5053096;28;20419;-85
2022/10/28 11:06:51;;;;;;;2.77;0.90;;;23.40;99.90;;;;;;5052775;28;20185;-85
2022/10/28 11:09:38;;;;;;;3.20;1.47;;;23.40;99.90;;;;;;5053327;28;20789;-85
2022/10/28 11:12:34;;;;;;;2.67;0.83;;;23.50;99.90;;;;;;5052560;28;20423;-85
2022/10/28 11:15:01;;;;;;;6.67;1.17;;;23.40;1.00;;;;;;5053052;28;20419;-84
2022/10/28 11:17:29;;;;;;;4.40;1.27;;;23.60;99.90;;;;;;5052859;28;20824;-84
2022/10/28 11:19:57;;;;;;;5.53;1.67;;;23.70;99.90;;;;;;5052910;28;20444;-85
2022/10/28 11:22:34;;;;;;;4.30;1.33;;;23.50;99.90;;;;;;5052468;28;20423;-85
2022/10/28 11:25:34;;;;;;;5.67;1.17;;;23.40;99.90;;;;;;5052983;28;20426;-84
2022/10/28 11:28:18;;;;;;;3.43;1.13;;;23.40;99.90;;;;;;5053197;28;20438;-85
2022/10/28 11:31:29;;;;;;;4.70;1.23;;;23.80;99.90;;;;;;5052888;28;20400;-85
2022/10/28 11:34:15;;;;;;;5.57;1.70;;;23.60;99.90;;;;;;5052885;28;20404;-85
2022/10/28 11:37:08;;;;;;;4.00;1.43;;;23.60;99.90;;;;;;5052403;28;20471;-85
2022/10/28 11:39:45;;;;;;;2.90;0.60;;;23.40;99.90;;;;;;5053025;28;20408;-85
2022/10/28 11:42:52;;;;;;;4.50;1.00;;;23.30;1.00;;;;;;5053008;28;20613;-84
2022/10/28 11:45:28;;;;;;;5.77;1.37;;;23.10;99.90;;;;;;5052392;28;20424;-85
2022/10/28 11:48:04;;;;;;;3.67;2.20;;;23.40;1.00;;;;;;5052813;28;20940;-85
2022/10/28 11:50:41;;;;;;;3.70;1.17;;;23.00;1.00;;;;;;5052683;28;20452;-85
2022/10/28 11:53:41;;;;;;;3.20;0.77;;;23.10;1.00;;;;;;5052404;28;20451;-85
2022/10/28 11:56:27;;;;;;;3.80;1.07;;;23.00;99.90;;;;;;5053091;28;20452;-86
2022/10/28 11:59:06;;;;;;;8.90;0.97;;;22.90;1.00;;;;;;5053192;28;20424;-84
2022/10/28 12:02:09;;;;;;;7.10;1.23;;;22.70;1.00;;;;;;5035197;28;20497;-83
2022/10/28 12:04:45;;;;;;;6.97;1.20;;;22.50;99.90;;;;;;5053244;28;20424;-84
2022/10/28 12:07:27;;;;;;;3.47;1.10;;;22.30;1.00;;;;;;5052752;28;20503;-85
2022/10/28 12:10:34;;;;;;;4.33;0.90;;;22.20;99.90;;;;;;5052583;28;20423;-84
2022/10/28 12:13:12;;;;;;;5.57;1.80;;;22.30;99.90;;;;;;5046698;28;20422;-84
2022/10/28 12:15:59;;;;;;;3.20;1.50;;;22.50;1.00;;;;;;5052386;28;20487;-85
2022/10/28 12:18:32;;;;;;;4.80;1.30;;;22.70;12.00;;;;;;5052487;28;20446;-84
2022/10/28 12:21:26;;;;;;;3.57;1.47;;;23.00;55.60;;;;;;5052118;28;20436;-85
2022/10/28 12:23:54;;;;;;;5.50;1.57;;;23.60;1.00;;;;;;5048361;28;20420;-84
2022/10/28 12:26:32;;;;;;;7.00;1.73;;;23.80;1.00;;;;;;5056108;28;20470;-84
2022/10/28 12:29:02;;;;;;;4.70;1.87;;;23.70;99.90;;;;;;5056136;28;20435;-85
2022/10/28 12:31:41;;;;;;;5.07;1.40;;;23.60;1.00;;;;;;5056154;28;20530;-84
2022/10/28 12:34:14;;;;;;;2.27;0.50;;;23.50;99.90;;;;;;5056044;28;20412;-83
2022/10/28 12:36:51;;;;;;;4.23;1.80;;;23.30;1.00;;;;;;5055519;28;20467;-84
2022/10/28 12:39:40;;;;;;;6.40;2.67;;;23.00;1.00;;;;;;5038012;28;20997;-84
2022/10/28 12:42:15;;;;;;;2.63;0.60;;;22.70;1.00;;;;;;5050052;28;20486;-86
2022/10/28 12:44:42;;;;;;;4.40;1.23;;;22.50;1.00;;;;;;5055742;28;20414;-85
2022/10/28 12:47:26;;;;;;;6.07;1.27;;;22.50;99.90;;;;;;5055732;28;20946;-84
2022/10/28 12:50:19;;;;;;;5.47;1.57;;;22.40;1.00;;;;;;5055548;28;20455;-84
2022/10/28 12:53:01;;;;;;;6.03;2.00;;;22.50;99.90;;;;;;5055347;28;20408;-84
2022/10/28 12:55:40;;;;;;;3.33;1.23;;;22.50;99.90;;;;;;5055567;28;20453;-84
2022/10/28 12:58:29;;;;;;;4.83;0.93;;;22.60;10.90;;;;;;5055612;28;20426;-84
2022/10/28 13:01:05;;;;;;;4.60;2.00;;;22.80;1.00;;;;;;5055353;28;20411;-84
2022/10/28 13:03:31;;;;;;;4.37;2.03;;;22.80;99.90;;;;;;5055415;28;20447;-83
2022/10/28 13:06:16;;;;;;;3.93;1.17;;;22.80;1.00;;;;;;5054976;28;20502;-83
2022/10/28 13:09:20;;;;;;;2.57;1.00;;;22.80;43.40;;;;;;5055407;28;20177;-84
2022/10/28 13:12:04;;;;;;;5.57;1.60;;;23.00;1.00;;;;;;5055300;28;20408;-84